Time;durP1;ratioP1;P1;durP2;ratioP2;P2;SDS_P1;SDS_P2;PMS_P1;PMS_P2;Temp;Humidity;BMP_temperature;BMP_pressure;BME280_temperature;BME280_humidity;BME280_pressure;Samples;Min_cycle;Max_cycle;Signal;HPM_P1;HPM_P2
2021/11/27 00:00:33;;;;;;;19.83;12.03;;;;;;;3.44;88.99;98944.94;4965778;28;20204;-74
2021/11/27 00:03:00;;;;;;;19.33;12.33;;;;;;;3.42;89.04;98944.09;4963761;28;20189;-75
2021/11/27 00:05:27;;;;;;;18.07;12.23;;;;;;;3.48;88.97;98942.50;4960051;28;20192;-75
2021/11/27 00:07:54;;;;;;;20.43;12.83;;;;;;;3.45;89.21;98937.41;4957334;28;20252;-75
2021/11/27 00:10:23;;;;;;;17.00;11.87;;;;;;;3.45;88.90;98929.81;4943553;28;20563;-75
2021/11/27 00:12:49;;;;;;;20.00;12.63;;;;;;;3.48;88.94;98929.00;4965994;28;20188;-75
2021/11/27 00:15:15;;;;;;;16.97;11.93;;;;;;;3.49;89.24;98923.97;4961748;28;20192;-74
2021/11/27 00:17:41;;;;;;;18.43;11.63;;;;;;;3.47;89.52;98925.63;4960336;28;20211;-75
2021/11/27 00:20:15;;;;;;;17.07;11.40;;;;;;;3.49;88.82;98923.97;4962251;28;20253;-75
2021/11/27 00:22:41;;;;;;;16.97;11.87;;;;;;;3.51;88.80;98924.00;4966331;28;20188;-74
2021/11/27 00:25:08;;;;;;;18.70;12.30;;;;;;;3.52;88.80;98924.03;4966727;28;20191;-74
2021/11/27 00:27:34;;;;;;;17.10;11.60;;;;;;;3.54;88.96;98919.84;4966126;28;20267;-76
2021/11/27 00:30:01;;;;;;;16.37;11.60;;;;;;;3.53;88.35;98922.34;4965691;28;20846;-74
2021/11/27 00:32:26;;;;;;;16.83;11.23;;;;;;;3.54;88.50;98924.91;4964133;28;20203;-75
2021/11/27 00:34:52;;;;;;;17.73;11.70;;;;;;;3.52;88.33;98921.50;4957743;28;20191;-76
2021/11/27 00:37:17;;;;;;;18.37;11.73;;;;;;;3.51;87.79;98921.47;4963595;28;20177;-75
2021/11/27 00:39:43;;;;;;;20.43;12.47;;;;;;;3.53;87.84;98912.22;4961945;28;20204;-75
2021/11/27 00:42:09;;;;;;;16.03;11.30;;;;;;;3.58;88.03;98918.22;4957432;28;20749;-75
2021/11/27 00:44:35;;;;;;;15.37;10.90;;;;;;;3.58;88.33;98908.94;4965069;28;20199;-75
2021/11/27 00:47:00;;;;;;;18.83;11.60;;;;;;;3.56;87.95;98905.56;4964862;28;20212;-75
2021/11/27 00:49:26;;;;;;;20.47;12.53;;;;;;;3.55;88.21;98908.88;4963323;28;20659;-75
2021/11/27 00:51:52;;;;;;;17.90;11.57;;;;;;;3.57;88.30;98908.91;4965396;28;20665;-76
2021/11/27 00:54:21;;;;;;;17.73;11.97;;;;;;;3.56;88.32;98909.75;4965610;28;20192;-75
2021/11/27 00:56:48;;;;;;;16.30;11.60;;;;;;;3.57;87.55;98899.66;4976432;28;20193;-76
2021/11/27 00:59:14;;;;;;;17.10;11.80;;;;;;;3.57;87.66;98902.19;4958182;28;20210;-75
2021/11/27 01:01:40;;;;;;;16.70;10.87;;;;;;;3.53;87.91;98900.44;4957239;28;20189;-76
2021/11/27 01:04:06;;;;;;;18.90;12.97;;;;;;;3.59;87.66;98903.03;4958599;28;20192;-75
2021/11/27 01:06:32;;;;;;;20.07;12.83;;;;;;;3.58;88.03;98903.06;4957161;28;20292;-74
2021/11/27 01:09:06;;;;;;;17.87;11.57;;;;;;;3.56;87.59;98900.50;4956119;28;20200;-75
2021/11/27 01:11:36;;;;;;;20.07;12.17;;;;;;;3.57;88.09;98904.72;4956701;28;20196;-74
2021/11/27 01:14:14;;;;;;;19.20;12.27;;;;;;;3.59;87.82;98897.97;4957723;28;20680;-75
2021/11/27 01:16:47;;;;;;;16.87;11.50;;;;;;;3.60;87.72;98904.78;4950949;28;20203;-74
2021/11/27 01:19:13;;;;;;;20.70;12.13;;;;;;;3.60;87.51;98899.72;4946735;28;20204;-76
2021/11/27 01:21:44;;;;;;;17.37;12.03;;;;;;;3.63;87.76;98891.31;4963371;28;20709;-75
2021/11/27 01:24:14;;;;;;;18.17;12.23;;;;;;;3.62;87.37;98882.88;4957804;28;20686;-74
2021/11/27 01:26:41;;;;;;;16.60;11.73;;;;;;;3.60;87.62;98889.59;4942394;28;20216;-74
2021/11/27 01:29:07;;;;;;;19.93;12.77;;;;;;;3.59;87.99;98882.81;4955510;28;20192;-73
2021/11/27 01:31:34;;;;;;;19.83;12.73;;;;;;;3.59;87.61;98887.03;4963577;28;20189;-74
2021/11/27 01:34:01;;;;;;;20.30;12.30;;;;;;;3.56;87.67;98892.03;4959365;28;20188;-74
2021/11/27 01:36:27;;;;;;;16.53;12.50;;;;;;;3.59;87.63;98890.41;4951247;28;20232;-74
2021/11/27 01:38:53;;;;;;;21.90;12.50;;;;;;;3.60;87.20;98891.25;4956506;28;20601;-75
2021/11/27 01:41:18;;;;;;;18.83;13.03;;;;;;;3.59;87.90;98890.41;4957583;28;20205;-74
2021/11/27 01:43:46;;;;;;;19.17;12.80;;;;;;;3.61;87.11;98886.22;4955550;28;20189;-74
2021/11/27 01:46:13;;;;;;;20.70;12.50;;;;;;;3.59;87.58;98887.88;4957863;28;20219;-75
2021/11/27 01:48:38;;;;;;;18.47;13.17;;;;;;;3.57;87.23;98881.09;4963253;28;20569;-75
2021/11/27 01:51:12;;;;;;;21.40;13.63;;;;;;;3.58;87.49;98885.34;4960129;28;20213;-75
2021/11/27 01:53:40;;;;;;;20.53;12.67;;;;;;;3.58;87.08;98883.63;4940440;28;20187;-75
2021/11/27 01:56:10;;;;;;;21.27;12.23;;;;;;;3.64;87.28;98886.25;4950756;28;20181;-75
2021/11/27 01:58:36;;;;;;;19.00;12.93;;;;;;;3.60;87.40;98887.06;4939999;28;20359;-75
2021/11/27 02:01:07;;;;;;;20.33;12.57;;;;;;;3.58;86.96;98893.75;4956148;28;20221;-75
2021/11/27 02:03:33;;;;;;;18.43;12.83;;;;;;;3.58;86.90;98890.41;4958150;28;20645;-75
2021/11/27 02:06:13;;;;;;;22.00;12.97;;;;;;;3.59;87.05;98887.88;4947716;28;20245;-74
2021/11/27 02:08:41;;;;;;;21.47;14.10;;;;;;;3.58;87.00;98891.22;4961860;28;20188;-75
2021/11/27 02:11:10;;;;;;;20.20;13.57;;;;;;;3.58;87.25;98893.75;4962139;28;20212;-74
2021/11/27 02:13:38;;;;;;;19.07;12.80;;;;;;;3.58;87.34;98886.16;4962131;28;20196;-75
2021/11/27 02:16:06;;;;;;;21.03;14.10;;;;;;;3.55;86.89;98892.88;4962455;28;20196;-74
2021/11/27 02:21:14;;;;;;;21.80;13.27;;;;;;;3.58;87.25;98896.28;4947541;28;20235;-75
2021/11/27 02:23:40;;;;;;;22.03;13.90;;;;;;;3.60;87.88;98896.31;4966212;28;20197;-75
2021/11/27 02:26:10;;;;;;;22.77;13.17;;;;;;;3.59;86.98;98897.16;4963857;28;20276;-75
2021/11/27 02:28:49;;;;;;;21.80;14.10;;;;;;;3.56;87.34;98890.38;4948256;29;20189;-75
2021/11/27 02:31:15;;;;;;;20.33;13.97;;;;;;;3.57;87.36;98891.19;4970578;28;20690;-75
2021/11/27 02:33:41;;;;;;;19.97;14.23;;;;;;;3.59;87.75;98887.03;4974437;28;20201;-75
2021/11/27 02:36:07;;;;;;;21.00;14.40;;;;;;;3.56;87.15;98897.97;4949724;29;20196;-75
2021/11/27 02:38:33;;;;;;;21.53;13.97;;;;;;;3.57;87.04;98893.72;4964922;28;20223;-75
2021/11/27 02:40:59;;;;;;;21.40;14.30;;;;;;;3.51;87.15;98888.59;4949573;28;20224;-75
2021/11/27 02:43:25;;;;;;;23.90;15.37;;;;;;;3.55;87.65;98893.69;4949971;28;20247;-75
2021/11/27 02:45:51;;;;;;;23.90;14.93;;;;;;;3.54;87.53;98889.47;4966014;28;20223;-75
2021/11/27 02:48:18;;;;;;;22.83;14.70;;;;;;;3.53;87.95;98887.78;4950853;28;20185;-75
2021/11/27 02:50:44;;;;;;;23.27;14.47;;;;;;;3.55;87.67;98890.34;4950966;28;20197;-76
2021/11/27 02:53:09;;;;;;;26.77;15.40;;;;;;;3.55;88.11;98887.81;4952043;28;20680;-75
2021/11/27 02:55:35;;;;;;;23.90;15.17;;;;;;;3.54;87.83;98881.06;4952701;28;20193;-75
2021/11/27 02:58:01;;;;;;;23.73;15.03;;;;;;;3.54;88.31;98888.66;4985598;28;20196;-75
2021/11/27 03:00:27;;;;;;;23.73;15.53;;;;;;;3.50;87.90;98890.25;4977731;28;20300;-75
2021/11/27 03:02:53;;;;;;;22.33;14.80;;;;;;;3.53;87.99;98874.28;4950289;28;20280;-75
2021/11/27 03:05:19;;;;;;;26.03;15.13;;;;;;;3.51;87.53;98879.34;4950282;28;20661;-75
2021/11/27 03:07:46;;;;;;;25.37;14.60;;;;;;;3.53;87.32;98876.81;4950512;29;20263;-75
2021/11/27 03:10:16;;;;;;;22.23;14.70;;;;;;;3.52;87.92;98875.09;4951425;28;20196;-75
2021/11/27 03:12:42;;;;;;;25.63;14.83;;;;;;;3.50;87.38;98881.84;4931356;29;20193;-75
2021/11/27 03:15:11;;;;;;;24.43;14.87;;;;;;;3.53;87.49;98874.28;4933698;29;20263;-75
2021/11/27 03:17:38;;;;;;;22.63;14.37;;;;;;;3.54;87.92;98874.31;4950206;28;20189;-75
2021/11/27 03:20:05;;;;;;;22.03;13.87;;;;;;;3.55;87.38;98870.94;4965303;28;20208;-75
2021/11/27 03:22:31;;;;;;;21.53;15.13;;;;;;;3.58;87.49;98890.41;4951483;28;20189;-76
2021/11/27 03:24:57;;;;;;;22.80;15.40;;;;;;;3.55;87.25;98886.13;4950054;28;20197;-76
2021/11/27 03:27:22;;;;;;;22.50;14.77;;;;;;;3.55;87.43;98888.66;4949540;28;20216;-76
2021/11/27 03:29:49;;;;;;;25.87;15.83;;;;;;;3.56;87.57;98886.97;4949701;29;20224;-76
2021/11/27 03:32:16;;;;;;;21.93;14.57;;;;;;;3.54;88.21;98892.00;4965325;28;20244;-76
2021/11/27 03:34:52;;;;;;;22.70;15.07;;;;;;;3.55;88.09;98883.59;4949997;28;20243;-76
2021/11/27 03:37:18;;;;;;;26.10;15.83;;;;;;;3.55;88.18;98890.34;4949674;29;20185;-76
2021/11/27 03:39:45;;;;;;;26.07;15.93;;;;;;;3.56;87.81;98894.56;4949959;29;20220;-76
2021/11/27 03:42:12;;;;;;;22.57;15.17;;;;;;;3.52;88.05;98888.63;4951091;28;20205;-76
2021/11/27 03:44:39;;;;;;;23.80;14.97;;;;;;;3.54;88.08;98891.19;4949523;28;20244;-76
2021/11/27 03:47:06;;;;;;;25.20;15.23;;;;;;;3.57;88.31;98881.09;4936826;29;20213;-76
2021/11/27 03:49:33;;;;;;;25.40;16.53;;;;;;;3.57;88.26;98884.47;4965360;28;20185;-76
2021/11/27 03:51:59;;;;;;;22.67;15.63;;;;;;;3.57;88.52;98897.13;4966599;28;20201;-76
2021/11/27 03:54:30;;;;;;;26.10;15.97;;;;;;;3.57;87.97;98883.63;4978392;28;20193;-76
2021/11/27 03:56:56;;;;;;;23.33;14.80;;;;;;;3.55;87.46;98896.22;4953098;28;20593;-76
2021/11/27 03:59:22;;;;;;;23.63;15.37;;;;;;;3.52;87.59;98893.69;4952726;28;20189;-76
2021/11/27 04:01:48;;;;;;;23.77;15.27;;;;;;;3.54;87.44;98892.00;4953009;28;20213;-76
2021/11/27 04:04:17;;;;;;;27.00;16.37;;;;;;;3.57;87.95;98894.59;4969042;28;20185;-76
2021/11/27 04:06:43;;;;;;;26.40;15.60;;;;;;;3.55;87.52;98893.69;4953180;28;20895;-76
2021/11/27 04:09:10;;;;;;;27.33;15.77;;;;;;;3.54;87.09;98893.72;4952808;28;20207;-76
2021/11/27 04:11:38;;;;;;;23.90;14.83;;;;;;;3.55;87.57;98892.88;4952887;28;20690;-76
2021/11/27 04:14:08;;;;;;;28.00;16.07;;;;;;;3.57;87.44;98896.25;4969197;28;20200;-76
2021/11/27 04:16:41;;;;;;;23.37;15.13;;;;;;;3.57;87.17;98903.84;4968569;28;20181;-76
2021/11/27 04:19:07;;;;;;;22.47;14.83;;;;;;;3.57;86.76;98898.78;4952172;29;20200;-76
2021/11/27 04:21:33;;;;;;;28.47;15.77;;;;;;;3.54;86.79;98904.66;4952644;28;20205;-76
2021/11/27 04:23:58;;;;;;;23.67;14.97;;;;;;;3.54;87.18;98899.59;4968688;28;20224;-76
2021/11/27 04:26:24;;;;;;;24.97;15.40;;;;;;;3.54;87.76;98897.06;4968668;28;20208;-76
2021/11/27 04:28:53;;;;;;;26.33;17.13;;;;;;;3.56;87.94;98899.63;4952595;29;20204;-75
2021/11/27 04:31:19;;;;;;;25.83;15.73;;;;;;;3.51;88.08;98896.19;4968327;28;20216;-76
2021/11/27 04:33:48;;;;;;;24.77;15.80;;;;;;;3.49;87.83;98896.16;4968725;28;20666;-75
2021/11/27 04:36:14;;;;;;;28.27;16.47;;;;;;;3.53;88.52;98902.97;4968520;28;20276;-76
2021/11/27 04:38:43;;;;;;;26.70;15.87;;;;;;;3.48;88.68;98907.09;4951719;28;20197;-76
2021/11/27 04:41:09;;;;;;;25.97;16.93;;;;;;;3.50;89.03;98902.06;4955927;28;20196;-76
2021/11/27 04:43:35;;;;;;;28.83;16.70;;;;;;;3.49;88.40;98897.84;4971841;28;20279;-76
2021/11/27 04:46:01;;;;;;;27.30;16.87;;;;;;;3.47;89.19;98907.06;4959784;28;20229;-75
2021/11/27 04:48:29;;;;;;;28.90;17.50;;;;;;;3.43;88.71;98901.13;4968365;28;20589;-76
2021/11/27 04:50:54;;;;;;;27.67;17.37;;;;;;;3.42;88.81;98899.44;4968141;28;20694;-75
2021/11/27 04:53:20;;;;;;;27.73;17.53;;;;;;;3.44;89.29;98910.41;4968427;28;20193;-76
2021/11/27 04:55:46;;;;;;;28.37;17.60;;;;;;;3.42;89.15;98898.56;4968326;28;20588;-76
2021/11/27 04:58:16;;;;;;;32.63;18.70;;;;;;;3.46;89.04;98912.97;4968092;28;20189;-76
2021/11/27 05:00:46;;;;;;;27.90;16.77;;;;;;;3.48;89.36;98907.09;4968100;28;20217;-76
2021/11/27 05:03:15;;;;;;;27.33;16.93;;;;;;;3.43;89.34;98911.25;4967630;28;20630;-76
2021/11/27 05:05:41;;;;;;;30.20;17.30;;;;;;;3.45;89.51;98908.75;4951870;28;20729;-76
2021/11/27 05:08:07;;;;;;;29.83;17.47;;;;;;;3.43;89.51;98913.78;4967977;28;20185;-76
2021/11/27 05:10:34;;;;;;;29.53;17.93;;;;;;;3.45;89.21;98914.63;4967985;28;20219;-76
2021/11/27 05:13:01;;;;;;;31.77;18.10;;;;;;;3.41;89.33;98923.00;4968036;28;20275;-77
2021/11/27 05:15:28;;;;;;;27.20;17.57;;;;;;;3.42;90.00;98922.19;4968090;28;20196;-74
2021/11/27 05:17:58;;;;;;;27.17;17.47;;;;;;;3.42;89.36;98922.19;4967945;28;20196;-77
2021/11/27 05:20:32;;;;;;;29.93;17.57;;;;;;;3.46;89.27;98923.94;4967868;28;20765;-76
2021/11/27 05:22:57;;;;;;;26.67;17.37;;;;;;;3.40;89.57;98928.06;4964814;28;20197;-75
2021/11/27 05:25:23;;;;;;;26.47;17.47;;;;;;;3.41;89.89;98934.81;4948660;29;20221;-76
2021/11/27 05:28:12;;;;;;;28.33;18.07;;;;;;;3.42;90.07;98927.25;4955143;28;20205;-76
2021/11/27 05:30:57;;;;;;;30.63;18.17;;;;;;;3.39;89.47;98929.72;4958701;28;20621;-76
2021/11/27 05:33:45;;;;;;;31.30;17.60;;;;;;;3.40;89.58;98936.47;4967585;28;20193;-76
2021/11/27 05:36:17;;;;;;;27.37;17.13;;;;;;;3.43;89.58;98933.13;4948263;29;20182;-75
2021/11/27 05:38:47;;;;;;;27.27;17.03;;;;;;;3.43;89.44;98935.66;4948032;29;20186;-76
2021/11/27 05:41:14;;;;;;;31.20;18.23;;;;;;;3.45;89.52;98931.50;4948064;28;20760;-76
2021/11/27 05:43:40;;;;;;;26.97;17.27;;;;;;;3.43;89.49;98931.47;4956981;28;20272;-76
2021/11/27 05:46:06;;;;;;;28.63;17.37;;;;;;;3.43;89.59;98940.72;4966784;28;20209;-76
2021/11/27 05:48:33;;;;;;;30.23;17.90;;;;;;;3.45;89.59;98939.09;4951305;28;20185;-76
2021/11/27 05:51:25;;;;;;;30.00;18.47;;;;;;;3.42;89.73;98944.94;4951046;28;20208;-76
2021/11/27 05:53:51;;;;;;;30.10;18.30;;;;;;;3.43;89.76;98943.25;4951316;29;20185;-76
2021/11/27 05:56:17;;;;;;;32.40;18.73;;;;;;;3.44;89.59;98950.88;4952098;28;20588;-76
2021/11/27 05:58:42;;;;;;;30.60;18.77;;;;;;;3.41;89.70;98952.50;4951854;29;20208;-76
2021/11/27 06:01:10;;;;;;;32.17;18.67;;;;;;;3.41;89.82;98945.75;4952009;28;20221;-76
2021/11/27 06:03:36;;;;;;;33.70;19.10;;;;;;;3.42;90.20;98954.22;4952475;28;20223;-76
2021/11/27 06:06:03;;;;;;;28.67;17.77;;;;;;;3.40;90.03;98959.22;4951435;28;20209;-75
2021/11/27 06:08:30;;;;;;;28.50;17.87;;;;;;;3.45;89.67;98954.25;4951892;28;20251;-76
2021/11/27 06:10:56;;;;;;;30.87;17.83;;;;;;;3.46;89.85;98945.84;4952018;28;20299;-76
2021/11/27 06:13:22;;;;;;;31.33;18.10;;;;;;;3.46;89.95;98951.78;4951951;28;20193;-76
2021/11/27 06:15:47;;;;;;;27.67;17.03;;;;;;;3.44;89.40;98950.88;4949268;28;20252;-76
2021/11/27 06:18:13;;;;;;;27.37;17.57;;;;;;;3.43;89.72;98960.97;4951957;28;20252;-76
2021/11/27 06:20:39;;;;;;;29.27;18.17;;;;;;;3.40;89.92;98950.81;4951688;28;20586;-76
2021/11/27 06:23:05;;;;;;;31.13;18.60;;;;;;;3.44;89.46;98955.94;4952234;28;20279;-76
2021/11/27 06:25:31;;;;;;;30.53;18.37;;;;;;;3.43;89.29;98959.28;4951626;28;20189;-75
2021/11/27 06:27:57;;;;;;;27.67;16.83;;;;;;;3.45;89.42;98964.38;4951835;28;20674;-76
2021/11/27 06:30:23;;;;;;;28.77;18.90;;;;;;;3.44;89.93;98967.72;4951410;28;20204;-76
2021/11/27 06:32:49;;;;;;;31.40;18.57;;;;;;;3.39;89.44;98974.38;4952268;28;20220;-76
2021/11/27 06:35:14;;;;;;;31.33;17.60;;;;;;;3.44;89.24;98972.78;4951705;28;20606;-76
2021/11/27 06:37:40;;;;;;;27.13;18.27;;;;;;;3.37;89.21;98989.56;4951717;29;20185;-76
2021/11/27 06:40:07;;;;;;;29.20;18.53;;;;;;;3.43;89.21;98979.53;4950978;28;20193;-76
2021/11/27 06:42:39;;;;;;;30.33;18.53;;;;;;;3.43;89.63;98992.19;4950533;29;20695;-75
2021/11/27 06:45:23;;;;;;;31.30;18.70;;;;;;;3.45;89.21;98994.72;4949879;29;20224;-76
2021/11/27 06:48:02;;;;;;;27.97;18.00;;;;;;;3.46;89.28;98991.38;4966122;28;20777;-75
2021/11/27 06:50:28;;;;;;;27.93;17.80;;;;;;;3.47;88.86;98999.00;4951023;28;20217;-76
2021/11/27 06:52:53;;;;;;;27.20;17.93;;;;;;;3.44;89.00;98998.06;4951120;28;20189;-76
2021/11/27 06:55:19;;;;;;;27.70;18.50;;;;;;;3.44;88.86;99009.03;4951383;28;20218;-76
2021/11/27 06:57:46;;;;;;;26.60;17.20;;;;;;;3.46;88.86;99012.47;4966255;28;20555;-76
2021/11/27 07:00:12;;;;;;;27.60;17.90;;;;;;;3.47;89.18;99009.13;4965898;28;20189;-76
2021/11/27 07:03:13;;;;;;;27.63;17.17;;;;;;;3.48;89.17;99013.34;4948688;29;20200;-76
2021/11/27 07:05:57;;;;;;;30.27;18.40;;;;;;;3.44;89.27;99018.31;4951613;28;20208;-76
2021/11/27 07:08:23;;;;;;;28.93;17.93;;;;;;;3.44;89.18;99023.34;4949471;28;20188;-75
2021/11/27 07:10:55;;;;;;;32.47;19.30;;;;;;;3.43;88.89;99022.53;4949847;28;20204;-76
2021/11/27 07:13:22;;;;;;;26.47;17.97;;;;;;;3.44;89.19;99021.69;4966091;28;20185;-76
2021/11/27 07:15:50;;;;;;;30.97;18.27;;;;;;;3.49;88.97;99030.22;4965880;28;20192;-76
2021/11/27 07:18:16;;;;;;;29.37;18.27;;;;;;;3.47;89.36;99026.81;4965881;28;20185;-76
2021/11/27 07:20:41;;;;;;;30.60;19.10;;;;;;;3.48;88.59;99035.25;4965534;28;20266;-76
2021/11/27 07:23:09;;;;;;;28.77;18.23;;;;;;;3.48;89.06;99025.13;4949607;29;20657;-76
2021/11/27 07:25:36;;;;;;;29.83;18.27;;;;;;;3.47;88.61;99031.88;4950017;29;20205;-75
2021/11/27 07:28:22;;;;;;;28.37;18.03;;;;;;;3.49;88.66;99030.22;4953762;28;20221;-76
2021/11/27 07:30:47;;;;;;;28.40;17.73;;;;;;;3.52;89.14;99027.75;4954583;28;20247;-76
2021/11/27 07:33:13;;;;;;;27.57;17.63;;;;;;;3.54;88.77;99032.84;4953792;29;20658;-76
2021/11/27 07:35:38;;;;;;;27.87;17.53;;;;;;;3.55;89.25;99037.06;4955005;28;20185;-76
2021/11/27 07:38:04;;;;;;;29.00;17.73;;;;;;;3.54;89.04;99040.44;4969699;28;20188;-75
2021/11/27 07:40:30;;;;;;;30.73;17.80;;;;;;;3.54;88.58;99046.31;4953952;28;20263;-76
2021/11/27 07:42:56;;;;;;;30.27;17.60;;;;;;;3.56;88.58;99049.75;4955250;28;20196;-76
2021/11/27 07:45:31;;;;;;;29.47;18.20;;;;;;;3.58;88.68;99049.78;4955511;28;20211;-76
2021/11/27 07:48:16;;;;;;;29.67;17.73;;;;;;;3.63;88.28;99051.53;4953807;29;20337;-75
2021/11/27 07:51:01;;;;;;;27.17;17.87;;;;;;;3.60;89.09;99043.91;4955203;28;20236;-76
2021/11/27 07:53:41;;;;;;;28.17;17.30;;;;;;;3.64;88.11;99045.66;4954634;28;20192;-75
2021/11/27 07:56:07;;;;;;;27.47;18.17;;;;;;;3.69;88.29;99049.09;4963022;28;20185;-76
2021/11/27 07:58:33;;;;;;;29.33;18.33;;;;;;;3.69;88.12;99045.75;4973797;28;20642;-76
2021/11/27 08:00:58;;;;;;;30.57;17.47;;;;;;;3.69;87.87;99051.63;4958776;28;20208;-76
2021/11/27 08:03:24;;;;;;;29.30;17.50;;;;;;;3.73;88.33;99052.56;4954552;28;20189;-76
2021/11/27 08:05:49;;;;;;;26.33;17.10;;;;;;;3.72;87.54;99055.94;4954534;28;20212;-76
2021/11/27 08:08:16;;;;;;;27.00;17.33;;;;;;;3.69;87.46;99056.69;4954307;28;20207;-76
2021/11/27 08:10:42;;;;;;;29.77;17.90;;;;;;;3.72;87.68;99054.22;4954345;28;20213;-75
2021/11/27 08:13:07;;;;;;;27.27;16.73;;;;;;;3.77;88.24;99050.09;4968979;28;20196;-76
2021/11/27 08:15:33;;;;;;;29.13;17.07;;;;;;;3.83;87.54;99057.81;4973807;28;20188;-75
2021/11/27 08:17:58;;;;;;;24.73;17.73;;;;;;;3.79;87.41;99063.66;4973728;28;20181;-76
2021/11/27 08:20:24;;;;;;;27.50;17.77;;;;;;;3.76;87.63;99065.25;4973432;28;20231;-76
2021/11/27 08:22:49;;;;;;;27.33;17.67;;;;;;;3.73;88.13;99067.75;4973541;28;20184;-76
2021/11/27 08:25:16;;;;;;;27.10;17.80;;;;;;;3.78;87.47;99079.63;4973470;28;20681;-77
2021/11/27 08:27:41;;;;;;;29.73;18.67;;;;;;;3.77;87.71;99070.34;4973333;28;20287;-76
2021/11/27 08:30:09;;;;;;;30.03;17.50;;;;;;;3.80;88.05;99072.94;4973134;28;20236;-76
2021/11/27 08:32:35;;;;;;;28.87;17.53;;;;;;;3.83;87.66;99078.06;4973320;28;20222;-76
2021/11/27 08:35:01;;;;;;;29.03;17.53;;;;;;;3.79;87.10;99078.84;4972519;28;20637;-76
2021/11/27 08:37:29;;;;;;;28.77;17.47;;;;;;;3.99;87.95;99072.41;4974634;28;20188;-75
2021/11/27 08:39:55;;;;;;;25.00;16.63;;;;;;;4.15;87.44;99071.00;4972541;28;20193;-75
2021/11/27 08:42:23;;;;;;;26.33;16.50;;;;;;;4.35;86.93;99062.88;4973082;28;20208;-73
2021/11/27 08:44:50;;;;;;;28.77;18.07;;;;;;;4.54;86.42;99069.03;4973304;28;20192;-76
2021/11/27 08:47:16;;;;;;;26.10;16.43;;;;;;;4.59;85.44;99065.75;4988067;28;20290;-73
2021/11/27 08:49:42;;;;;;;25.67;16.10;;;;;;;4.70;84.64;99063.38;4958242;28;20196;-77
2021/11/27 08:52:08;;;;;;;27.30;16.60;;;;;;;4.56;84.34;99072.47;4953168;28;20557;-77
2021/11/27 08:54:33;;;;;;;23.47;15.97;;;;;;;4.50;84.24;99070.69;4954672;28;20193;-78
2021/11/27 08:56:59;;;;;;;25.90;16.07;;;;;;;4.48;84.43;99079.09;4954661;28;20193;-76
2021/11/27 08:59:25;;;;;;;26.07;16.43;;;;;;;4.38;84.97;99075.56;4954380;28;20189;-75
2021/11/27 09:01:52;;;;;;;25.57;15.80;;;;;;;4.42;84.49;99081.53;4956437;28;20209;-75
2021/11/27 09:04:17;;;;;;;25.37;16.33;;;;;;;4.46;84.38;99088.38;4957261;28;20234;-79
2021/11/27 09:06:43;;;;;;;26.57;17.17;;;;;;;4.39;84.82;99089.97;4956458;28;20266;-78
2021/11/27 09:09:10;;;;;;;25.07;17.10;;;;;;;4.38;84.61;99089.94;4953720;28;20639;-77
2021/11/27 09:11:36;;;;;;;27.17;17.50;;;;;;;4.35;84.33;99097.47;4953294;28;20217;-78
2021/11/27 09:14:01;;;;;;;26.30;16.80;;;;;;;4.23;85.17;99094.75;4953300;28;20252;-77
2021/11/27 09:16:27;;;;;;;27.23;16.77;;;;;;;4.29;85.17;99100.78;4953208;28;20190;-78
2021/11/27 09:18:53;;;;;;;26.93;17.23;;;;;;;4.19;85.83;99101.44;4952857;28;20188;-76
2021/11/27 09:21:18;;;;;;;25.30;16.93;;;;;;;4.11;84.91;99104.69;4953112;28;20221;-77
2021/11/27 09:23:44;;;;;;;27.00;17.03;;;;;;;4.08;85.71;99102.09;4951754;28;20189;-78
2021/11/27 09:26:09;;;;;;;24.23;16.50;;;;;;;4.08;85.15;99105.50;4952989;28;20690;-76
2021/11/27 09:28:35;;;;;;;25.60;16.63;;;;;;;4.09;85.54;99108.88;4952681;28;20201;-76
2021/11/27 09:31:01;;;;;;;25.17;16.47;;;;;;;4.02;85.55;99112.13;4952880;28;20278;-74
2021/11/27 09:33:29;;;;;;;26.07;16.87;;;;;;;4.02;85.66;99114.66;4951470;29;20248;-75
2021/11/27 09:36:06;;;;;;;26.33;17.30;;;;;;;4.05;86.13;99109.66;4951403;28;20193;-75
2021/11/27 09:38:35;;;;;;;28.40;17.27;;;;;;;4.07;85.46;99106.31;4952571;28;20183;-74
2021/11/27 09:41:17;;;;;;;26.37;17.17;;;;;;;4.05;85.23;99114.72;4952238;28;20284;-75
2021/11/27 09:43:46;;;;;;;28.73;17.27;;;;;;;4.06;85.66;99109.69;4952761;28;20891;-75
2021/11/27 09:46:13;;;;;;;29.53;17.60;;;;;;;4.12;85.76;99113.97;4952573;28;20556;-74
2021/11/27 09:48:46;;;;;;;25.60;17.23;;;;;;;4.06;86.00;99124.00;4952345;28;20216;-76
2021/11/27 09:51:13;;;;;;;26.33;15.90;;;;;;;4.12;85.46;99119.03;4952409;28;20209;-76
2021/11/27 09:53:39;;;;;;;26.03;16.50;;;;;;;4.11;85.12;99128.34;4952457;28;20204;-76
2021/11/27 09:56:06;;;;;;;26.37;16.90;;;;;;;4.14;86.09;99122.47;4952877;28;20193;-74
2021/11/27 09:58:32;;;;;;;27.30;17.43;;;;;;;4.12;85.58;99127.50;4952018;28;20558;-73
2021/11/27 10:00:58;;;;;;;28.03;17.13;;;;;;;4.13;85.66;99129.19;4952320;28;20580;-73
2021/11/27 10:03:24;;;;;;;27.67;17.53;;;;;;;4.19;85.48;99124.22;4952426;28;20196;-73
2021/11/27 10:05:51;;;;;;;26.53;16.87;;;;;;;4.19;85.33;99124.22;4952335;28;20677;-75
2021/11/27 10:08:16;;;;;;;28.93;16.93;;;;;;;4.24;84.99;99126.84;4952241;28;20185;-75
2021/11/27 10:10:44;;;;;;;29.03;16.90;;;;;;;4.14;85.28;99125.84;4952321;28;20743;-74
2021/11/27 10:13:10;;;;;;;25.40;15.67;;;;;;;4.16;85.14;99131.78;4952254;28;20189;-74
2021/11/27 10:15:35;;;;;;;26.37;16.33;;;;;;;4.12;84.75;99124.97;4952119;28;20848;-74
2021/11/27 10:18:13;;;;;;;25.33;16.03;;;;;;;4.09;85.21;99132.50;4950832;28;20239;-74
2021/11/27 10:20:39;;;;;;;28.57;17.70;;;;;;;4.12;85.46;99136.78;4951906;28;20220;-75
2021/11/27 10:23:05;;;;;;;29.27;17.27;;;;;;;4.11;86.14;99132.53;4951999;28;20224;-75
2021/11/27 10:25:43;;;;;;;26.67;16.60;;;;;;;4.18;86.66;99137.72;4951963;28;20188;-76
2021/11/27 10:28:11;;;;;;;26.90;16.97;;;;;;;4.18;86.48;99142.78;4950517;28;20239;-72
2021/11/27 10:30:48;;;;;;;29.93;17.13;;;;;;;4.23;86.13;99143.72;4951804;28;20213;-73
2021/11/27 10:33:15;;;;;;;28.63;17.63;;;;;;;4.16;86.33;99149.53;4951861;28;20583;-73
2021/11/27 10:36:12;;;;;;;28.67;17.20;;;;;;;4.21;86.34;99142.84;4951766;28;20267;-74
2021/11/27 10:38:50;;;;;;;30.23;18.03;;;;;;;4.19;86.65;99147.03;4943474;28;20197;-74
2021/11/27 10:41:17;;;;;;;27.60;16.87;;;;;;;4.21;86.87;99142.84;4951875;28;20223;-75
2021/11/27 10:44:10;;;;;;;30.20;17.53;;;;;;;4.18;86.86;99149.56;4951808;28;20193;-75
2021/11/27 10:46:38;;;;;;;28.63;17.53;;;;;;;4.18;86.79;99145.31;4951517;29;20300;-75
2021/11/27 10:49:07;;;;;;;26.23;17.00;;;;;;;4.14;87.58;99146.09;4951357;28;20547;-75
2021/11/27 10:51:34;;;;;;;27.97;17.20;;;;;;;4.03;86.90;99147.59;4951374;28;20216;-74
2021/11/27 10:54:05;;;;;;;29.20;17.13;;;;;;;4.09;86.90;99147.69;4951508;28;20196;-75
2021/11/27 10:56:40;;;;;;;27.70;17.27;;;;;;;4.06;87.40;99144.25;4950998;28;20204;-74
2021/11/27 10:59:06;;;;;;;27.13;16.33;;;;;;;4.06;86.58;99145.13;4951116;28;20581;-74
2021/11/27 11:01:52;;;;;;;28.57;17.00;;;;;;;4.08;87.54;99156.13;4950890;28;20205;-75
2021/11/27 11:04:18;;;;;;;25.30;16.27;;;;;;;4.09;86.51;99144.34;4951312;28;20193;-75
2021/11/27 11:06:44;;;;;;;25.00;16.83;;;;;;;4.12;87.15;99145.22;4951450;28;20204;-74
2021/11/27 11:09:12;;;;;;;29.03;18.10;;;;;;;4.10;87.19;99148.56;4951237;28;20185;-74
2021/11/27 11:11:37;;;;;;;26.97;16.37;;;;;;;4.06;87.49;99154.41;4951449;28;20479;-74
2021/11/27 11:14:26;;;;;;;28.10;17.77;;;;;;;4.08;87.57;99148.53;4951656;28;20189;-74
2021/11/27 11:16:56;;;;;;;29.97;17.83;;;;;;;4.00;87.62;99151.75;4951726;28;20235;-75
2021/11/27 11:19:23;;;;;;;26.73;16.53;;;;;;;3.87;87.15;99152.38;4951230;28;20204;-75
2021/11/27 11:22:09;;;;;;;27.20;17.37;;;;;;;3.85;87.25;99154.00;4951153;28;20275;-74
2021/11/27 11:24:37;;;;;;;25.77;16.00;;;;;;;3.85;87.57;99154.00;4951269;28;20279;-74
2021/11/27 11:27:07;;;;;;;27.33;17.10;;;;;;;3.81;88.22;99150.56;4951338;28;20710;-74
2021/11/27 11:29:44;;;;;;;22.27;15.50;;;;;;;3.70;87.74;99158.78;4951223;28;20199;-74
2021/11/27 11:32:27;;;;;;;23.63;15.10;;;;;;;3.70;87.65;99164.72;4951242;28;20708;-74